createdAt,value
2022-12-22T00:01:49.932Z,1.43
2022-12-22T00:05:11.702Z,1.38
2022-12-22T00:08:32.769Z,1.37
2022-12-22T00:11:54.421Z,1.43
2022-12-22T00:15:16.316Z,1.33
2022-12-22T00:18:37.743Z,1.20
2022-12-22T00:21:58.793Z,1.29
2022-12-22T00:25:19.996Z,1.29
2022-12-22T00:28:40.709Z,1.28
2022-12-22T00:32:02.610Z,1.29
2022-12-22T00:35:23.815Z,1.11
2022-12-22T00:38:46.963Z,1.18
2022-12-22T00:42:08.470Z,1.23
2022-12-22T00:45:29.895Z,1.24
2022-12-22T00:48:50.984Z,1.16
2022-12-22T00:52:11.985Z,1.19
2022-12-22T00:55:35.157Z,1.15
2022-12-22T00:58:56.554Z,1.22
2022-12-22T01:02:17.363Z,1.15
2022-12-22T01:05:38.459Z,1.24
2022-12-22T01:08:59.555Z,1.33
2022-12-22T01:12:24.501Z,1.35
2022-12-22T01:15:46.715Z,1.38
2022-12-22T01:19:08.082Z,1.38
2022-12-22T01:22:31.376Z,1.41
2022-12-22T01:25:52.752Z,1.40
2022-12-22T01:29:13.719Z,1.49
2022-12-22T01:32:35.218Z,1.52
2022-12-22T01:35:56.315Z,1.55
2022-12-22T01:39:17.599Z,1.51
2022-12-22T01:42:38.693Z,1.58
2022-12-22T01:45:59.966Z,1.61
2022-12-22T01:49:20.947Z,1.73
2022-12-22T01:52:45.831Z,1.81
2022-12-22T01:56:06.823Z,1.82
2022-12-22T01:59:27.884Z,1.79
2022-12-22T02:02:51.467Z,1.84
2022-12-22T02:06:30.869Z,1.95
2022-12-22T02:10:29.563Z,1.94
2022-12-22T02:14:15.483Z,1.95
2022-12-22T02:17:44.328Z,2.02
2022-12-22T02:21:15.172Z,2.15
2022-12-22T02:24:48.248Z,2.06
2022-12-22T02:28:12.194Z,2.13
2022-12-22T02:31:33.233Z,2.14
2022-12-22T02:34:54.567Z,2.18
2022-12-22T02:38:34.025Z,2.21
2022-12-22T02:42:05.156Z,2.25
2022-12-22T02:45:29.010Z,2.26
2022-12-22T02:49:09.322Z,2.28
2022-12-22T02:52:44.861Z,2.35
2022-12-22T02:56:06.306Z,2.35
2022-12-22T02:59:27.289Z,2.26
2022-12-22T03:02:48.718Z,2.26
2022-12-22T03:06:10.168Z,2.18
2022-12-22T03:09:31.148Z,2.18
2022-12-22T03:12:52.465Z,2.15
2022-12-22T03:16:14.345Z,2.00
2022-12-22T03:19:35.210Z,2.07
2022-12-22T03:22:56.323Z,2.05
2022-12-22T03:25:58.507Z,1.97
2022-12-22T03:29:01.048Z,1.94
2022-12-22T03:32:03.593Z,1.94
2022-12-22T03:35:06.804Z,1.94
2022-12-22T03:38:09.072Z,1.97
2022-12-22T03:41:31.630Z,1.93
2022-12-22T03:44:52.567Z,1.96
2022-12-22T03:47:55.040Z,1.98
2022-12-22T03:50:57.137Z,1.95
2022-12-22T03:53:59.981Z,1.94
2022-12-22T03:57:02.212Z,1.95
2022-12-22T04:00:05.756Z,1.93
2022-12-22T04:03:14.380Z,1.80
2022-12-22T04:06:18.191Z,1.85
2022-12-22T04:09:22.228Z,1.85
2022-12-22T04:12:43.704Z,1.84
2022-12-22T04:15:45.975Z,1.83
2022-12-22T04:18:48.751Z,1.72
2022-12-22T04:21:51.002Z,1.79
2022-12-22T04:24:53.531Z,1.67
2022-12-22T04:27:55.862Z,1.65
2022-12-22T04:30:58.827Z,1.57
2022-12-22T04:34:01.016Z,1.59
2022-12-22T04:37:14.678Z,1.51
2022-12-22T04:40:19.186Z,1.51
2022-12-22T04:43:22.035Z,1.43
2022-12-22T04:46:24.373Z,1.42
2022-12-22T04:49:27.032Z,1.45
2022-12-22T04:52:29.297Z,1.50
2022-12-22T04:55:32.001Z,1.53
2022-12-22T04:58:35.182Z,1.57
2022-12-22T05:01:37.834Z,1.59
2022-12-22T05:04:40.207Z,1.56
2022-12-22T05:07:44.063Z,1.54
2022-12-22T05:10:46.329Z,1.57
2022-12-22T05:13:48.840Z,1.59
2022-12-22T05:16:51.569Z,1.61
2022-12-22T05:19:54.092Z,1.65
2022-12-22T05:22:57.614Z,1.65
2022-12-22T05:26:00.369Z,1.62
2022-12-22T05:29:02.680Z,1.62
2022-12-22T05:32:05.347Z,1.61
2022-12-22T05:35:08.230Z,1.66
2022-12-22T05:38:10.756Z,1.63
2022-12-22T05:41:13.179Z,1.60
2022-12-22T05:44:15.683Z,1.61
2022-12-22T05:47:17.892Z,1.58
2022-12-22T05:50:22.697Z,1.60
2022-12-22T05:53:32.764Z,1.63
2022-12-22T05:56:35.289Z,1.52
2022-12-22T05:59:37.463Z,1.65
2022-12-22T06:02:44.367Z,1.53
2022-12-22T06:05:49.847Z,1.57
2022-12-22T06:08:52.034Z,1.60
2022-12-22T06:11:54.539Z,1.50
2022-12-22T06:14:56.771Z,1.51
2022-12-22T06:18:00.072Z,1.58
2022-12-22T06:21:02.347Z,1.59
2022-12-22T06:24:05.974Z,1.50
2022-12-22T06:27:08.854Z,1.52
2022-12-22T06:30:11.741Z,1.56
2022-12-22T06:33:13.976Z,1.58
2022-12-22T06:36:16.764Z,1.59
2022-12-22T06:39:19.144Z,1.60
2022-12-22T06:42:40.158Z,1.57
2022-12-22T06:45:43.748Z,1.55
2022-12-22T06:48:46.317Z,1.56
2022-12-22T06:51:49.049Z,1.55
2022-12-22T06:54:51.582Z,1.45
2022-12-22T06:57:54.521Z,1.52
2022-12-22T07:00:57.268Z,1.55
2022-12-22T07:03:59.819Z,1.49
2022-12-22T07:07:02.487Z,1.45
2022-12-22T07:10:05.681Z,1.49
2022-12-22T07:13:19.736Z,1.54
2022-12-22T07:16:22.235Z,1.59
2022-12-22T07:19:24.744Z,1.69
2022-12-22T07:22:30.193Z,1.67
2022-12-22T07:25:33.182Z,1.68
2022-12-22T07:28:37.491Z,1.77
2022-12-22T07:31:41.729Z,1.77
2022-12-22T07:34:44.147Z,1.67
2022-12-22T07:37:49.851Z,1.77
2022-12-22T07:41:04.340Z,1.83
2022-12-22T07:44:07.918Z,1.86
2022-12-22T07:47:10.122Z,1.90
2022-12-22T07:50:25.396Z,1.87
2022-12-22T07:53:27.617Z,1.90
2022-12-22T07:56:30.193Z,1.89
2022-12-22T07:59:32.386Z,1.88
2022-12-22T08:02:38.875Z,1.84
2022-12-22T08:05:42.065Z,1.82
2022-12-22T08:08:44.284Z,1.86
2022-12-22T08:11:48.974Z,1.84
2022-12-22T08:14:51.174Z,1.79
2022-12-22T08:17:53.691Z,1.86
2022-12-22T08:20:56.071Z,1.98
2022-12-22T08:23:58.570Z,2.03
2022-12-22T08:27:05.475Z,1.90
2022-12-22T08:30:09.147Z,2.03
2022-12-22T08:33:11.359Z,2.03
2022-12-22T08:36:14.743Z,2.04
2022-12-22T08:39:18.677Z,2.13
2022-12-22T08:42:22.893Z,2.16
2022-12-22T08:45:25.484Z,2.17
2022-12-22T08:48:28.085Z,2.20
2022-12-22T08:51:30.261Z,2.25
2022-12-22T08:54:32.975Z,2.25
2022-12-22T08:57:35.416Z,2.31
2022-12-22T09:00:37.928Z,2.33
2022-12-22T09:03:40.093Z,2.42
2022-12-22T09:06:42.763Z,2.49
2022-12-22T09:09:45.466Z,2.50
2022-12-22T09:12:48.212Z,2.56
2022-12-22T09:15:50.366Z,2.54
2022-12-22T09:18:53.874Z,2.65
2022-12-22T09:21:56.074Z,2.52
2022-12-22T09:24:58.850Z,2.63
2022-12-22T09:28:01.261Z,2.72
2022-12-22T09:31:04.920Z,2.75
2022-12-22T09:34:11.988Z,2.71
2022-12-22T09:37:19.610Z,2.71
2022-12-22T09:40:22.278Z,2.76
2022-12-22T09:43:30.200Z,2.70
2022-12-22T09:46:36.482Z,2.79
2022-12-22T09:49:39.060Z,2.73
2022-12-22T09:52:47.522Z,2.81
2022-12-22T09:55:51.437Z,2.80
2022-12-22T09:58:53.693Z,2.66
2022-12-22T10:02:27.359Z,2.63
2022-12-22T10:05:41.933Z,2.54
2022-12-22T10:08:44.421Z,2.46
2022-12-22T10:11:55.221Z,2.63
2022-12-22T10:14:57.617Z,2.60
2022-12-22T10:18:18.074Z,2.76
2022-12-22T10:21:23.095Z,2.86
2022-12-22T10:24:29.952Z,2.90
2022-12-22T10:27:37.279Z,2.91
2022-12-22T10:30:43.734Z,3.03
2022-12-22T10:33:47.978Z,3.09
2022-12-22T10:36:55.535Z,3.18
2022-12-22T10:39:57.856Z,3.23
2022-12-22T10:43:02.167Z,3.31
2022-12-22T10:46:05.430Z,3.37
2022-12-22T10:49:20.118Z,3.40
2022-12-22T10:52:32.294Z,3.42
2022-12-22T10:55:36.118Z,3.27
2022-12-22T10:58:56.552Z,3.20
2022-12-22T11:02:38.904Z,3.23
2022-12-22T11:05:45.375Z,3.32
2022-12-22T11:08:51.592Z,3.29
2022-12-22T11:12:04.234Z,3.36
2022-12-22T11:15:24.488Z,3.27
2022-12-22T11:19:03.791Z,3.38
2022-12-22T11:22:24.941Z,3.52
2022-12-22T11:25:35.991Z,3.64
2022-12-22T11:28:57.147Z,3.59
2022-12-22T11:32:21.610Z,3.46
2022-12-22T11:35:58.016Z,3.45
2022-12-22T11:39:16.293Z,3.44
2022-12-22T11:42:40.125Z,3.34
2022-12-22T11:45:43.590Z,3.35
2022-12-22T11:49:07.265Z,3.37
2022-12-22T11:52:33.887Z,3.41
2022-12-22T11:55:42.896Z,3.39
2022-12-22T11:59:03.780Z,3.46
2022-12-22T12:02:35.885Z,3.52
2022-12-22T12:06:05.615Z,3.61
2022-12-22T12:09:28.861Z,3.54
2022-12-22T12:13:11.256Z,3.55
2022-12-22T12:16:35.554Z,3.70
2022-12-22T12:20:10.053Z,3.53
2022-12-22T12:23:49.056Z,3.58
2022-12-22T12:26:58.131Z,3.47
2022-12-22T12:33:48.293Z,3.47
2022-12-22T12:36:59.625Z,3.48
2022-12-22T12:40:26.296Z,3.58
2022-12-22T12:43:29.251Z,3.66
2022-12-22T12:46:40.770Z,3.55
2022-12-22T12:50:03.185Z,3.68
2022-12-22T12:53:08.529Z,3.83
2022-12-22T12:56:10.753Z,3.76
2022-12-22T12:59:42.097Z,3.76
2022-12-22T13:02:57.506Z,3.73
2022-12-22T13:06:02.654Z,3.66
2022-12-22T13:09:31.284Z,3.71
2022-12-22T13:12:54.093Z,3.69
2022-12-22T13:16:02.408Z,3.70
2022-12-22T13:19:14.875Z,3.83
2022-12-22T13:22:18.414Z,3.69
2022-12-22T13:25:22.384Z,3.82
2022-12-22T13:28:25.991Z,3.87
2022-12-22T13:31:34.098Z,3.96
2022-12-22T13:35:28.413Z,3.97
2022-12-22T13:38:29.379Z,3.92
2022-12-22T13:41:33.627Z,3.72
2022-12-22T13:44:38.692Z,3.63
2022-12-22T13:47:43.421Z,3.50
2022-12-22T13:50:52.496Z,3.41
2022-12-22T13:54:11.027Z,3.38
2022-12-22T13:57:20.327Z,3.34
2022-12-22T14:00:28.349Z,3.27
2022-12-22T14:06:54.791Z,3.25
2022-12-22T14:09:58.076Z,3.19
2022-12-22T14:13:05.597Z,3.26
2022-12-22T14:16:13.832Z,3.24
2022-12-22T14:19:21.385Z,3.22
2022-12-22T14:22:33.120Z,3.21
2022-12-22T14:25:38.618Z,3.18
2022-12-22T14:28:50.499Z,3.16
2022-12-22T14:31:58.420Z,3.17
2022-12-22T14:35:01.136Z,3.11
2022-12-22T14:38:23.783Z,3.04
2022-12-22T14:41:46.828Z,3.03
2022-12-22T14:44:49.703Z,3.05
2022-12-22T14:47:54.679Z,3.16
2022-12-22T14:50:57.360Z,3.19
2022-12-22T14:54:02.862Z,3.01
2022-12-22T14:57:15.832Z,2.94
2022-12-22T15:00:22.070Z,2.96
2022-12-22T15:03:36.409Z,2.86
2022-12-22T15:06:41.600Z,2.87
2022-12-22T15:13:16.218Z,2.75
2022-12-22T15:16:21.600Z,2.74
2022-12-22T15:19:30.201Z,2.76
2022-12-22T15:22:32.694Z,2.70
2022-12-22T15:25:35.796Z,2.66
2022-12-22T15:28:38.470Z,2.79
2022-12-22T15:31:43.011Z,2.70
2022-12-22T15:34:46.130Z,2.69
2022-12-22T15:37:49.160Z,2.66
2022-12-22T15:40:53.434Z,2.56
2022-12-22T15:43:58.386Z,2.70
2022-12-22T15:47:01.344Z,2.56
2022-12-22T15:50:04.599Z,2.56
2022-12-22T15:53:11.873Z,2.55
2022-12-22T15:56:20.594Z,2.48
2022-12-22T15:59:28.015Z,2.52
2022-12-22T16:02:30.815Z,2.50
2022-12-22T16:05:34.342Z,2.49
2022-12-22T16:08:39.490Z,2.57
2022-12-22T16:11:42.153Z,2.51
2022-12-22T16:14:50.755Z,2.56
2022-12-22T16:17:54.923Z,2.56
2022-12-22T16:21:02.239Z,2.63
2022-12-22T16:24:06.932Z,2.56
2022-12-22T16:27:11.876Z,2.63
2022-12-22T16:30:29.347Z,2.60
2022-12-22T16:33:31.562Z,2.61
2022-12-22T16:36:34.253Z,2.61
2022-12-22T16:39:36.435Z,2.61
2022-12-22T16:46:03.455Z,2.47
2022-12-22T16:49:09.111Z,2.55
2022-12-22T16:52:20.457Z,2.58
2022-12-22T16:55:23.292Z,2.60
2022-12-22T16:58:25.634Z,2.58
2022-12-22T17:01:38.759Z,2.53
2022-12-22T17:04:41.179Z,2.53
2022-12-22T17:07:44.299Z,2.57
2022-12-22T17:10:46.733Z,2.54
2022-12-22T17:13:52.769Z,2.51
2022-12-22T17:16:55.073Z,2.56
2022-12-22T17:19:57.990Z,2.59
2022-12-22T17:23:02.593Z,2.62
2022-12-22T17:26:11.391Z,2.68
2022-12-22T17:29:20.298Z,2.66
2022-12-22T17:32:23.139Z,2.66
2022-12-22T17:35:28.722Z,2.68
2022-12-22T17:38:31.598Z,2.64
2022-12-22T17:41:33.882Z,2.63
2022-12-22T17:44:36.531Z,2.62
2022-12-22T17:47:42.894Z,2.70
2022-12-22T17:50:49.684Z,2.70
2022-12-22T17:53:53.552Z,2.77
2022-12-22T17:57:01.971Z,2.67
2022-12-22T18:00:04.995Z,2.75
2022-12-22T18:03:15.280Z,2.69
2022-12-22T18:06:21.797Z,2.70
2022-12-22T18:09:26.171Z,2.75
2022-12-22T18:12:29.838Z,2.77
2022-12-22T18:15:32.233Z,2.88
2022-12-22T18:18:34.927Z,2.88
2022-12-22T18:21:37.283Z,3.03
2022-12-22T18:24:40.324Z,2.92
2022-12-22T18:27:42.856Z,2.90
2022-12-22T18:30:46.031Z,2.90
2022-12-22T18:33:48.704Z,2.91
2022-12-22T18:36:51.627Z,2.91
2022-12-22T18:39:54.082Z,2.91
2022-12-22T18:42:57.869Z,2.90
2022-12-22T18:46:00.211Z,2.93
2022-12-22T18:49:05.788Z,2.96
2022-12-22T18:52:26.424Z,2.95
2022-12-22T18:55:31.915Z,2.88
2022-12-22T18:58:34.361Z,2.83
2022-12-22T19:01:38.527Z,2.87
2022-12-22T19:04:41.239Z,2.91
2022-12-22T19:07:44.471Z,2.87
2022-12-22T19:11:07.047Z,2.92
2022-12-22T19:14:21.563Z,2.94
2022-12-22T19:17:28.876Z,3.01
2022-12-22T19:20:32.140Z,2.97
2022-12-22T19:23:34.312Z,3.02
2022-12-22T19:26:37.209Z,3.05
2022-12-22T19:29:39.575Z,3.08
2022-12-22T19:32:46.251Z,3.11
2022-12-22T19:35:48.830Z,3.17
2022-12-22T19:39:02.264Z,3.09
2022-12-22T19:42:06.184Z,3.14
2022-12-22T19:45:25.116Z,3.17
2022-12-22T19:48:27.587Z,3.17
2022-12-22T19:51:31.623Z,3.17
2022-12-22T19:54:33.866Z,3.21
2022-12-22T19:57:43.859Z,3.28
2022-12-22T20:00:47.211Z,3.31
2022-12-22T20:03:50.030Z,3.28
2022-12-22T20:06:52.440Z,3.35
2022-12-22T20:09:55.101Z,3.38
2022-12-22T20:13:01.764Z,3.39
2022-12-22T20:16:04.519Z,3.49
2022-12-22T20:19:13.704Z,3.52
2022-12-22T20:22:18.008Z,3.56
2022-12-22T20:25:38.267Z,3.53
2022-12-22T20:28:40.991Z,3.55
2022-12-22T20:31:43.397Z,3.53
2022-12-22T20:34:46.036Z,3.60
2022-12-22T20:37:48.270Z,3.65
2022-12-22T20:40:51.615Z,3.73
2022-12-22T20:43:54.014Z,3.73
2022-12-22T20:46:56.941Z,3.68
2022-12-22T20:49:59.689Z,3.66
2022-12-22T20:53:02.934Z,3.71
2022-12-22T20:56:16.610Z,3.71
2022-12-22T20:59:22.478Z,3.76
2022-12-22T21:02:29.614Z,3.84
2022-12-22T21:05:32.544Z,3.87
2022-12-22T21:08:34.734Z,3.88
2022-12-22T21:11:37.458Z,3.94
2022-12-22T21:14:39.803Z,3.92
2022-12-22T21:17:46.132Z,3.88
2022-12-22T21:20:49.769Z,3.94
2022-12-22T21:23:52.417Z,4.00
2022-12-22T21:26:55.812Z,4.00
2022-12-22T21:29:58.721Z,4.05
2022-12-22T21:33:00.984Z,4.05
2022-12-22T21:36:04.391Z,4.06
2022-12-22T21:39:27.762Z,4.14
2022-12-22T21:42:30.372Z,4.20
2022-12-22T21:45:35.765Z,4.22
2022-12-22T21:48:41.493Z,4.22
2022-12-22T21:51:43.738Z,4.20
2022-12-22T21:54:46.282Z,4.13
2022-12-22T21:57:48.453Z,4.14
2022-12-22T22:00:51.144Z,4.14
2022-12-22T22:03:53.799Z,4.12
2022-12-22T22:06:56.042Z,4.14
2022-12-22T22:09:58.551Z,4.25
2022-12-22T22:13:01.287Z,4.29
2022-12-22T22:16:04.047Z,4.29
2022-12-22T22:19:06.273Z,4.32
2022-12-22T22:22:08.796Z,4.31
2022-12-22T22:25:12.621Z,4.33
2022-12-22T22:28:15.181Z,4.43
2022-12-22T22:31:17.404Z,4.51
2022-12-22T22:34:19.995Z,4.53
2022-12-22T22:37:22.438Z,4.63
2022-12-22T22:40:24.948Z,4.71
2022-12-22T22:43:27.303Z,4.74
2022-12-22T22:46:29.920Z,4.72
2022-12-22T22:49:32.171Z,4.75
2022-12-22T22:52:36.177Z,4.74
2022-12-22T22:55:38.413Z,4.80
2022-12-22T22:58:40.957Z,4.81
2022-12-22T23:01:43.215Z,4.84
2022-12-22T23:04:45.709Z,4.87
2022-12-22T23:07:48.007Z,4.95
2022-12-22T23:10:50.534Z,5.03
2022-12-22T23:13:55.882Z,5.04
2022-12-22T23:16:58.393Z,4.91
2022-12-22T23:20:00.582Z,4.87
2022-12-22T23:23:03.192Z,4.82
2022-12-22T23:26:06.213Z,4.86
2022-12-22T23:29:09.073Z,4.84
2022-12-22T23:32:11.326Z,4.92
2022-12-22T23:35:13.932Z,4.86
2022-12-22T23:38:18.201Z,4.87
2022-12-22T23:41:20.930Z,4.86
2022-12-22T23:44:23.175Z,4.83
2022-12-22T23:47:26.025Z,4.92
2022-12-22T23:50:28.220Z,4.96
2022-12-22T23:53:31.000Z,4.87
2022-12-22T23:56:33.379Z,4.81
2022-12-22T23:59:36.042Z,4.85
